createdAt,value
2023-04-06T00:01:47.872Z,79.05
2023-04-06T00:06:49.407Z,74.50
2023-04-06T00:11:51.032Z,72.38
2023-04-06T00:16:52.542Z,74.60
2023-04-06T00:21:54.074Z,80.18
2023-04-06T00:26:56.147Z,74.78
2023-04-06T00:31:57.617Z,74.22
2023-04-06T00:36:59.058Z,72.72
2023-04-06T00:42:01.480Z,65.82
2023-04-06T00:47:03.026Z,89.70
2023-04-06T00:52:04.626Z,82.75
2023-04-06T00:57:06.466Z,89.35
2023-04-06T01:02:08.992Z,81.93
2023-04-06T01:07:11.042Z,80.40
2023-04-06T01:12:12.503Z,76.03
2023-04-06T01:17:14.085Z,77.03
2023-04-06T01:22:17.590Z,70.65
2023-04-06T01:27:19.103Z,71.00
2023-04-06T01:32:20.559Z,76.03
2023-04-06T01:37:21.981Z,74.18
2023-04-06T01:42:23.472Z,73.90
2023-04-06T01:47:24.963Z,73.88
2023-04-06T01:52:26.686Z,72.53
2023-04-06T01:57:28.474Z,81.72
2023-04-06T02:02:29.985Z,76.32
2023-04-06T02:07:31.654Z,78.65
2023-04-06T02:12:33.140Z,75.85
2023-04-06T02:17:34.655Z,77.05
2023-04-06T02:22:36.664Z,81.25
2023-04-06T02:27:38.206Z,81.95
2023-04-06T02:32:39.731Z,82.93
2023-04-06T02:37:41.246Z,78.03
2023-04-06T02:42:42.676Z,79.78
2023-04-06T02:47:44.132Z,73.43
2023-04-06T02:52:45.621Z,77.50
2023-04-06T02:57:47.201Z,77.80
2023-04-06T03:02:48.687Z,68.90
2023-04-06T03:07:50.228Z,61.42
2023-04-06T03:12:51.669Z,74.10
2023-04-06T03:17:53.093Z,60.35
2023-04-06T03:22:54.554Z,61.03
2023-04-06T03:27:55.994Z,62.88
2023-04-06T03:32:57.399Z,58.47
2023-04-06T03:37:58.811Z,52.42
2023-04-06T03:43:00.413Z,56.42
2023-04-06T03:48:01.917Z,63.25
2023-04-06T03:53:06.048Z,59.67
2023-04-06T03:58:07.729Z,61.92
2023-04-06T04:03:09.242Z,64.82
2023-04-06T04:08:10.878Z,64.15
2023-04-06T04:13:12.284Z,55.95
2023-04-06T04:18:13.715Z,56.55
2023-04-06T04:23:15.138Z,59.65
2023-04-06T04:28:16.555Z,59.30
2023-04-06T04:33:17.970Z,58.97
2023-04-06T04:38:19.404Z,61.88
2023-04-06T04:43:21.077Z,61.85
2023-04-06T04:48:22.573Z,59.17
2023-04-06T04:53:25.154Z,55.47
2023-04-06T04:58:26.707Z,59.53
2023-04-06T05:03:28.364Z,55.50
2023-04-06T05:08:30.018Z,59.90
2023-04-06T05:13:32.276Z,59.17
2023-04-06T05:18:33.732Z,56.80
2023-04-06T05:23:35.491Z,65.63
2023-04-06T05:28:37.377Z,118.60
2023-04-06T05:33:38.866Z,91.28
2023-04-06T05:38:40.277Z,95.30
2023-04-06T05:43:41.675Z,106.88
2023-04-06T05:48:43.112Z,110.65
2023-04-06T05:53:44.579Z,84.78
2023-04-06T05:58:46.046Z,72.22
2023-04-06T06:03:47.461Z,63.63
2023-04-06T06:08:49.146Z,61.92
2023-04-06T06:13:50.623Z,57.90
2023-04-06T06:18:52.030Z,58.42
2023-04-06T06:23:55.021Z,54.22
2023-04-06T06:28:56.816Z,59.80
2023-04-06T06:33:58.261Z,55.28
2023-04-06T06:39:01.567Z,63.00
2023-04-06T06:44:03.369Z,61.65
2023-04-06T06:49:04.825Z,52.25
2023-04-06T06:54:06.797Z,57.33
2023-04-06T06:59:08.821Z,59.83
2023-04-06T07:04:10.604Z,62.70
2023-04-06T07:09:12.498Z,55.53
2023-04-06T07:14:13.999Z,59.38
2023-04-06T07:19:15.429Z,55.17
2023-04-06T07:24:16.936Z,60.55
2023-04-06T07:29:19.071Z,54.25
2023-04-06T07:34:20.641Z,51.95
2023-04-06T07:39:22.081Z,48.75
2023-04-06T07:44:23.761Z,51.85
2023-04-06T07:49:25.187Z,40.65
2023-04-06T07:54:26.664Z,39.63
2023-04-06T07:59:28.214Z,35.20
2023-04-06T08:04:29.693Z,20.70
2023-04-06T08:09:31.335Z,24.90
2023-04-06T08:14:32.745Z,26.38
2023-04-06T08:19:34.209Z,23.92
2023-04-06T08:24:35.903Z,25.67
2023-04-06T08:29:37.441Z,23.77
2023-04-06T08:34:38.906Z,28.60
2023-04-06T08:39:40.356Z,26.95
2023-04-06T08:44:42.302Z,18.52
2023-04-06T08:49:45.779Z,15.82
2023-04-06T08:54:48.335Z,20.60
2023-04-06T08:59:51.282Z,19.83
2023-04-06T09:04:54.879Z,18.27
2023-04-06T09:09:56.364Z,16.13
2023-04-06T09:14:58.773Z,18.42
2023-04-06T09:20:01.872Z,22.85
2023-04-06T09:25:03.548Z,21.15
2023-04-06T09:30:07.141Z,16.95
2023-04-06T09:35:09.752Z,17.13
2023-04-06T09:40:11.699Z,16.63
2023-04-06T09:45:13.980Z,21.15
2023-04-06T09:50:16.934Z,15.05
2023-04-06T09:55:35.329Z,15.55
2023-04-06T10:00:45.902Z,11.80
2023-04-06T10:05:53.233Z,18.30
2023-04-06T10:10:56.641Z,17.90
2023-04-06T10:16:01.343Z,19.00
2023-04-06T10:21:09.987Z,15.00
2023-04-06T10:26:18.200Z,15.57
2023-04-06T10:31:27.328Z,13.68
2023-04-06T10:36:33.712Z,12.55
2023-04-06T10:41:35.926Z,12.32
2023-04-06T10:46:37.349Z,13.43
2023-04-06T10:51:40.064Z,12.95
2023-04-06T10:56:41.489Z,13.93
2023-04-06T11:01:46.264Z,12.43
2023-04-06T11:06:52.133Z,10.10
2023-04-06T11:11:54.382Z,10.48
2023-04-06T11:16:56.087Z,9.63
2023-04-06T11:22:07.197Z,11.45
2023-04-06T11:27:08.777Z,12.07
2023-04-06T11:32:10.421Z,11.23
2023-04-06T11:37:12.802Z,11.25
2023-04-06T11:42:14.335Z,12.90
2023-04-06T11:47:16.013Z,13.05
2023-04-06T11:52:20.802Z,14.07
2023-04-06T11:57:26.348Z,12.13
2023-04-06T12:02:28.082Z,12.20
2023-04-06T12:07:30.846Z,11.68
2023-04-06T12:12:32.719Z,14.50
2023-04-06T12:17:34.212Z,13.65
2023-04-06T12:22:35.689Z,14.93
2023-04-06T12:27:37.115Z,15.77
2023-04-06T12:32:38.531Z,18.75
2023-04-06T12:37:41.137Z,16.05
2023-04-06T12:42:42.732Z,15.20
2023-04-06T12:47:44.285Z,16.25
2023-04-06T12:52:45.779Z,14.52
2023-04-06T12:57:47.360Z,14.60
2023-04-06T13:02:49.052Z,16.52
2023-04-06T13:07:50.643Z,14.25
2023-04-06T13:12:52.063Z,11.90
2023-04-06T13:17:56.316Z,16.05
2023-04-06T13:22:58.042Z,15.85
2023-04-06T13:27:59.881Z,12.88
2023-04-06T13:33:01.891Z,12.18
2023-04-06T13:38:03.578Z,11.05
2023-04-06T13:43:05.039Z,10.38
2023-04-06T13:48:07.038Z,12.13
2023-04-06T13:53:08.461Z,10.45
2023-04-06T13:58:10.268Z,12.63
2023-04-06T14:03:11.850Z,11.45
2023-04-06T14:08:13.550Z,12.70
2023-04-06T14:13:15.000Z,12.90
2023-04-06T14:18:16.940Z,13.93
2023-04-06T14:23:18.351Z,11.85
2023-04-06T14:28:22.051Z,12.82
2023-04-06T14:33:23.467Z,12.73
2023-04-06T14:38:25.009Z,18.77
2023-04-06T14:43:27.028Z,12.45
2023-04-06T14:48:29.051Z,13.73
2023-04-06T14:53:30.608Z,13.00
2023-04-06T14:58:32.135Z,16.20
2023-04-06T15:03:33.709Z,11.35
2023-04-06T15:08:35.393Z,18.33
2023-04-06T15:13:37.066Z,13.98
2023-04-06T15:18:38.472Z,11.40
2023-04-06T15:23:40.044Z,13.55
2023-04-06T15:28:41.797Z,14.68
2023-04-06T15:33:44.770Z,11.95
2023-04-06T15:38:46.573Z,12.55
2023-04-06T15:43:50.091Z,12.25
2023-04-06T15:48:51.834Z,11.50
2023-04-06T15:53:53.379Z,14.85
2023-04-06T15:58:54.896Z,13.50
2023-04-06T16:03:56.374Z,11.70
2023-04-06T16:08:58.041Z,16.00
2023-04-06T16:14:00.158Z,13.02
2023-04-06T16:19:01.941Z,12.32
2023-04-06T16:24:04.597Z,13.25
2023-04-06T16:29:06.506Z,11.85
2023-04-06T16:34:07.966Z,14.05
2023-04-06T16:39:10.099Z,11.57
2023-04-06T16:44:13.073Z,14.55
2023-04-06T16:49:15.893Z,13.25
2023-04-06T16:54:17.598Z,13.88
2023-04-06T16:59:19.075Z,12.35
2023-04-06T17:04:20.794Z,16.48
2023-04-06T17:09:23.635Z,14.23
2023-04-06T17:14:25.993Z,13.88
2023-04-06T17:19:27.488Z,14.57
2023-04-06T17:24:28.946Z,15.90
2023-04-06T17:29:30.422Z,15.15
2023-04-06T17:34:31.876Z,13.93
2023-04-06T17:39:33.333Z,14.55
2023-04-06T17:44:35.316Z,17.65
2023-04-06T17:49:36.733Z,16.30
2023-04-06T17:54:38.158Z,13.60
2023-04-06T17:59:41.709Z,16.67
2023-04-06T18:04:45.540Z,16.88
2023-04-06T18:09:47.254Z,15.93
2023-04-06T18:14:48.746Z,15.48
2023-04-06T18:19:50.280Z,16.80
2023-04-06T18:24:51.718Z,16.48
2023-04-06T18:29:53.562Z,13.80
2023-04-06T18:34:57.486Z,17.35
2023-04-06T18:39:58.915Z,15.32
2023-04-06T18:45:00.636Z,18.13
2023-04-06T18:50:02.374Z,16.08
2023-04-06T18:55:04.143Z,15.80
2023-04-06T19:00:06.289Z,15.57
2023-04-06T19:05:08.322Z,18.83
2023-04-06T19:10:10.487Z,18.13
2023-04-06T19:15:12.239Z,16.40
2023-04-06T19:20:13.660Z,15.70
2023-04-06T19:25:15.328Z,18.50
2023-04-06T19:30:16.780Z,18.38
2023-04-06T19:35:18.256Z,19.02
2023-04-06T19:40:19.755Z,20.17
2023-04-06T19:45:21.244Z,20.05
2023-04-06T19:50:22.713Z,19.30
2023-04-06T19:55:24.130Z,19.80
2023-04-06T20:00:25.657Z,20.88
2023-04-06T20:05:27.073Z,29.45
2023-04-06T20:10:28.521Z,71.68
2023-04-06T20:15:30.807Z,34.15
2023-04-06T20:20:32.363Z,26.13
2023-04-06T20:25:33.811Z,44.63
2023-04-06T20:30:35.591Z,27.20
2023-04-06T20:35:37.373Z,25.95
2023-04-06T20:40:40.003Z,24.00
2023-04-06T20:45:41.638Z,25.77
2023-04-06T20:50:43.080Z,25.52
2023-04-06T20:55:44.910Z,27.45
2023-04-06T21:00:49.501Z,23.30
2023-04-06T21:05:55.844Z,23.10
2023-04-06T21:10:57.334Z,25.25
2023-04-06T21:15:59.702Z,24.60
2023-04-06T21:21:01.156Z,23.73
2023-04-06T21:26:02.704Z,20.73
2023-04-06T21:31:08.735Z,24.65
2023-04-06T21:36:10.282Z,23.58
2023-04-06T21:41:11.762Z,27.20
2023-04-06T21:46:13.220Z,22.65
2023-04-06T21:51:22.100Z,21.60
2023-04-06T21:56:25.420Z,23.63
2023-04-06T22:01:28.524Z,22.27
2023-04-06T22:06:30.273Z,21.30
2023-04-06T22:11:31.720Z,26.23
2023-04-06T22:16:33.483Z,22.27
2023-04-06T22:21:34.998Z,22.92
2023-04-06T22:26:36.483Z,23.63
2023-04-06T22:31:37.971Z,21.42
2023-04-06T22:36:39.429Z,26.70
2023-04-06T22:41:40.893Z,26.73
2023-04-06T22:46:42.431Z,25.92
2023-04-06T22:51:44.717Z,27.42
2023-04-06T22:56:46.173Z,24.80
2023-04-06T23:01:47.661Z,24.10
2023-04-06T23:06:49.154Z,23.00
2023-04-06T23:11:50.719Z,26.30
2023-04-06T23:16:52.164Z,23.23
2023-04-06T23:21:55.994Z,27.95
2023-04-06T23:26:57.509Z,24.70
2023-04-06T23:31:58.994Z,24.05
2023-04-06T23:37:03.410Z,25.08
2023-04-06T23:42:05.168Z,22.77
2023-04-06T23:47:06.689Z,21.55
2023-04-06T23:52:08.132Z,22.83
2023-04-06T23:57:09.543Z,18.52
